Time;durP1;ratioP1;P1;durP2;ratioP2;P2;SDS_P1;SDS_P2;PMS_P1;PMS_P2;Temp;Humidity;BMP_temperature;BMP_pressure;BME280_temperature;BME280_humidity;BME280_pressure;Samples;Min_cycle;Max_cycle;Signal;HPM_P1;HPM_P2
2022/06/27 00:00:51;;;;;;;10.90;8.93;;;;;;;;;;4959746;28;20077;-78
2022/06/27 00:03:17;;;;;;;13.73;10.07;;;;;;;17.44;100.00;68712.03;4954502;28;20170;-79
2022/06/27 00:05:42;;;;;;;11.25;9.60;;;;;;;17.41;100.00;68700.53;4959611;28;20343;-78
2022/06/27 00:08:08;;;;;;;11.00;9.63;;;;;;;;;;4958240;28;20039;-79
2022/06/27 00:10:33;;;;;;;15.48;10.32;;;;;;;17.43;100.00;68705.47;4969713;28;20681;-80
2022/06/27 00:12:59;;;;;;;13.82;10.05;;;;;;;17.38;100.00;68700.38;4957883;28;20051;-78
2022/06/27 00:15:24;;;;;;;12.07;10.25;;;;;;;17.31;100.00;68692.94;4975060;28;20509;-77
2022/06/27 00:17:50;;;;;;;12.48;10.80;;;;;;;17.30;100.00;68691.22;4957966;28;20046;-78
2022/06/27 00:20:16;;;;;;;13.02;9.68;;;;;;;17.28;100.00;68694.88;4960706;28;20131;-79
2022/06/27 00:22:41;;;;;;;13.55;11.05;;;;;;;17.26;100.00;68686.66;4955976;28;20515;-79
2022/06/27 00:25:07;;;;;;;13.07;10.57;;;;;;;;;;4938824;28;20051;-79
2022/06/27 00:27:33;;;;;;;12.73;11.27;;;;;;;17.18;100.00;68678.13;4954122;28;20535;-80
2022/06/27 00:29:58;;;;;;;13.20;10.77;;;;;;;17.13;100.00;68672.97;4953214;28;20043;-78
2022/06/27 00:32:24;;;;;;;13.48;12.07;;;;;;;;;;4935868;28;20054;-79
2022/06/27 00:34:50;;;;;;;17.23;11.63;;;;;;;17.15;100.00;68680.06;4939313;28;20043;-78
2022/06/27 00:37:16;;;;;;;15.98;11.30;;;;;;;17.18;100.00;68678.13;4940679;28;20039;-78
2022/06/27 00:39:41;;;;;;;12.88;11.27;;;;;;;17.17;100.00;68674.28;4942781;28;20122;-78
2022/06/27 00:42:07;;;;;;;13.38;12.00;;;;;;;17.24;100.00;68682.25;4942912;28;20047;-79
2022/06/27 00:44:39;;;;;;;15.18;12.48;;;;;;;17.27;100.00;68687.81;4940459;28;20989;-81
2022/06/27 00:47:07;;;;;;;15.10;12.63;;;;;;;17.29;100.00;68690.66;4939970;28;20101;-79
2022/06/27 00:49:34;;;;;;;15.30;13.70;;;;;;;17.19;100.00;68679.25;4941925;28;20027;-79
2022/06/27 00:51:59;;;;;;;15.20;13.60;;;;;;;;;;4953155;28;20082;-79
2022/06/27 00:54:24;;;;;;;18.13;15.05;;;;;;;;;;4958468;28;20050;-78
2022/06/27 00:56:51;;;;;;;17.23;13.95;;;;;;;17.20;100.00;68685.75;4959496;28;20050;-78
2022/06/27 00:59:18;;;;;;;18.15;15.15;;;;;;;17.18;100.00;68677.56;4958806;28;20031;-79
2022/06/27 01:01:44;;;;;;;19.33;16.65;;;;;;;17.13;100.00;68677.78;4953878;28;20043;-80
2022/06/27 01:04:09;;;;;;;19.42;16.50;;;;;;;17.11;100.00;68670.13;4950340;28;20126;-78
2022/06/27 01:06:35;;;;;;;20.58;15.57;;;;;;;17.19;100.00;68684.06;4949163;28;20490;-77
2022/06/27 01:09:00;;;;;;;20.63;15.45;;;;;;;;;;4949926;28;20039;-77
2022/06/27 01:11:25;;;;;;;18.80;16.52;;;;;;;;;;4953139;28;20046;-78
2022/06/27 01:13:51;;;;;;;18.52;16.25;;;;;;;17.21;100.00;68680.97;4950088;28;20060;-78
2022/06/27 01:16:18;;;;;;;18.90;14.75;;;;;;;17.13;100.00;68677.78;4947412;28;20051;-78
2022/06/27 01:18:44;;;;;;;20.55;16.48;;;;;;;17.13;100.00;68677.78;4950541;28;20414;-79
2022/06/27 01:21:18;;;;;;;21.10;16.77;;;;;;;17.12;100.00;68671.84;4946537;28;20043;-78
2022/06/27 01:23:44;;;;;;;21.45;15.13;;;;;;;17.15;100.00;68674.69;4952568;28;20047;-78
2022/06/27 01:26:09;;;;;;;20.35;15.57;;;;;;;17.09;100.00;68673.22;4950561;28;20041;-78
2022/06/27 01:28:35;;;;;;;18.13;15.57;;;;;;;17.12;100.00;68671.84;4951420;28;20054;-78
2022/06/27 01:31:00;;;;;;;17.98;14.45;;;;;;;17.10;100.00;68669.56;4952897;28;20079;-78
2022/06/27 01:33:25;;;;;;;18.75;15.52;;;;;;;17.12;100.00;68677.22;4950487;28;20074;-78
2022/06/27 01:36:41;;;;;;;17.80;15.85;;;;;;;17.11;100.00;68675.50;4950550;28;20142;-77
2022/06/27 01:38:36;;;;;;;19.30;16.17;;;;;;;17.06;100.00;68665.00;4966105;28;20820;-78
2022/06/27 01:41:02;;;;;;;20.35;16.13;;;;;;;17.10;100.00;68669.00;4945239;28;20038;-77
2022/06/27 01:43:27;;;;;;;20.70;17.63;;;;;;;;;;4950703;28;20043;-77
2022/06/27 01:45:52;;;;;;;23.38;18.58;;;;;;;;;;4952284;28;20637;-77
2022/06/27 01:48:18;;;;;;;23.88;20.23;;;;;;;17.11;100.00;68676.06;4951063;28;20040;-77
2022/06/27 01:50:49;;;;;;;24.27;20.23;;;;;;;17.10;100.00;68674.94;4954231;28;20058;-76
2022/06/27 01:53:16;;;;;;;26.15;21.08;;;;;;;17.12;100.00;68671.84;4954466;28;20043;-76
2022/06/27 01:55:41;;;;;;;24.88;21.15;;;;;;;17.00;100.00;68663.50;4959914;28;20039;-76
2022/06/27 01:58:07;;;;;;;24.73;19.95;;;;;;;16.94;100.00;68651.28;4954733;28;20036;-77
2022/06/27 02:00:32;;;;;;;26.63;20.00;;;;;;;17.01;100.00;68658.72;4955560;28;20096;-75
2022/06/27 02:02:57;;;;;;;23.33;19.48;;;;;;;;;;4950628;28;20093;-77
2022/06/27 02:05:23;;;;;;;22.38;19.70;;;;;;;16.97;100.00;68654.16;4957602;28;20048;-78
2022/06/27 02:07:51;;;;;;;23.60;20.30;;;;;;;16.95;100.00;68657.25;4957372;28;20047;-77
2022/06/27 02:10:16;;;;;;;21.52;18.65;;;;;;;16.86;100.00;68642.75;4955962;28;20583;-76
2022/06/27 02:12:42;;;;;;;24.00;19.15;;;;;;;16.80;100.00;68635.91;4965683;28;20059;-77
2022/06/27 02:15:09;;;;;;;24.90;19.60;;;;;;;;;;4956760;28;20031;-78
2022/06/27 02:17:34;;;;;;;24.75;19.60;;;;;;;;;;4958260;28;20058;-80
2022/06/27 02:20:00;;;;;;;22.95;17.95;;;;;;;;;;4954937;28;20042;-77
2022/06/27 02:22:25;;;;;;;23.33;18.80;;;;;;;16.69;100.00;68628.72;4956091;28;20035;-78
2022/06/27 02:24:51;;;;;;;23.52;20.17;;;;;;;16.72;100.00;68626.22;4959514;28;20059;-78
2022/06/27 02:27:17;;;;;;;23.40;19.85;;;;;;;;;;4961272;28;20049;-77
2022/06/27 02:29:42;;;;;;;21.23;18.92;;;;;;;;;;4952104;28;20043;-78
2022/06/27 02:32:08;;;;;;;22.17;19.77;;;;;;;16.62;100.00;68615.94;4974933;28;20093;-77
2022/06/27 02:34:35;;;;;;;22.15;19.88;;;;;;;;;;4962328;28;20129;-77
2022/06/27 02:37:00;;;;;;;23.13;20.13;;;;;;;16.58;100.00;68610.81;4973487;28;20511;-78
2022/06/27 02:39:31;;;;;;;24.60;21.52;;;;;;;16.58;100.00;68610.81;4953510;28;20082;-77
2022/06/27 02:41:59;;;;;;;23.88;21.38;;;;;;;16.59;100.00;68611.94;4983601;28;20422;-78
2022/06/27 02:44:26;;;;;;;26.85;20.90;;;;;;;16.61;100.00;68619.59;4963045;28;20050;-77
2022/06/27 02:46:52;;;;;;;24.65;21.98;;;;;;;16.52;100.00;68604.53;4960972;28;20541;-79
2022/06/27 02:49:19;;;;;;;24.27;20.73;;;;;;;16.54;100.00;68606.22;4963476;28;20748;-79
2022/06/27 02:51:57;;;;;;;25.65;22.35;;;;;;;16.60;100.00;68613.06;4962524;28;20068;-77
2022/06/27 02:54:41;;;;;;;29.73;24.58;;;;;;;16.54;100.00;68606.22;4960616;28;20062;-78
2022/06/27 02:57:18;;;;;;;29.20;24.40;;;;;;;16.55;100.00;68612.75;4964842;28;20046;-78
2022/06/27 02:59:47;;;;;;;27.85;23.98;;;;;;;16.51;100.00;68600.13;4963600;28;20102;-78
2022/06/27 03:02:15;;;;;;;27.20;24.23;;;;;;;16.57;100.00;68615.03;4957988;28;20071;-79
2022/06/27 03:04:40;;;;;;;29.92;24.00;;;;;;;16.52;100.00;68609.34;4955155;28;20514;-80
2022/06/27 03:07:06;;;;;;;31.70;24.48;;;;;;;16.52;100.00;68603.97;4960164;28;20046;-78
2022/06/27 03:09:31;;;;;;;27.63;24.48;;;;;;;16.50;100.00;68599.00;4958093;28;20047;-79
2022/06/27 03:11:57;;;;;;;28.83;24.63;;;;;;;16.46;100.00;68603.63;4960640;28;20037;-78
2022/06/27 03:14:22;;;;;;;27.23;23.00;;;;;;;;;;4962969;28;20047;-79
2022/06/27 03:16:47;;;;;;;24.85;21.30;;;;;;;16.54;100.00;68612.19;4961007;28;20040;-77
2022/06/27 03:19:13;;;;;;;27.40;24.05;;;;;;;;;;4959813;28;20066;-79
2022/06/27 03:21:38;;;;;;;28.45;23.95;;;;;;;;;;4957622;28;20450;-76
2022/06/27 03:24:04;;;;;;;29.73;23.27;;;;;;;16.54;100.00;68603.53;4948077;28;20506;-76
2022/06/27 03:26:29;;;;;;;29.50;23.30;;;;;;;;;;4949924;28;20123;-77
2022/06/27 03:28:55;;;;;;;27.70;24.73;;;;;;;;;;4956740;28;20039;-78
2022/06/27 03:31:20;;;;;;;27.83;22.83;;;;;;;16.47;100.00;68604.19;4960702;28;20122;-77
2022/06/27 03:33:46;;;;;;;29.55;23.23;;;;;;;16.52;100.00;68603.97;4959296;28;20158;-76
2022/06/27 03:36:11;;;;;;;29.13;24.70;;;;;;;;;;4957445;28;20050;-78
2022/06/27 03:38:37;;;;;;;26.77;22.88;;;;;;;16.51;100.00;68602.81;4962711;28;20047;-78
2022/06/27 03:41:02;;;;;;;27.80;22.70;;;;;;;16.50;100.00;68601.69;4958415;28;20133;-75
2022/06/27 03:43:28;;;;;;;26.70;23.00;;;;;;;;;;4960978;28;20086;-77
2022/06/27 03:45:54;;;;;;;26.52;21.90;;;;;;;16.56;100.00;68608.53;4958057;28;20050;-77
2022/06/27 03:51:04;;;;;;;28.98;24.00;;;;;;;16.47;100.00;68599.41;4956455;28;20508;-79
2022/06/27 03:53:30;;;;;;;27.90;22.73;;;;;;;16.51;100.00;68608.75;4961527;28;20032;-79
2022/06/27 03:55:55;;;;;;;28.55;24.33;;;;;;;;;;4962122;28;20091;-78
2022/06/27 03:58:20;;;;;;;28.92;22.88;;;;;;;;;;4953843;28;20509;-77
2022/06/27 04:00:46;;;;;;;27.95;23.73;;;;;;;16.57;100.00;68609.66;4955524;28;20051;-78
2022/06/27 04:03:11;;;;;;;26.63;23.80;;;;;;;16.50;100.00;68601.69;4956104;28;20662;-78
2022/06/27 04:05:37;;;;;;;29.00;22.13;;;;;;;16.52;100.00;68604.53;4955576;28;20102;-77
2022/06/27 04:08:02;;;;;;;25.65;22.98;;;;;;;16.57;100.00;68609.66;4956246;28;20031;-78
2022/06/27 04:10:28;;;;;;;28.45;22.75;;;;;;;;;;4957645;28;20030;-79
2022/06/27 04:12:53;;;;;;;27.92;22.17;;;;;;;;;;4961214;28;20086;-78
2022/06/27 04:15:18;;;;;;;24.83;21.48;;;;;;;16.57;100.00;68610.25;4959904;28;20046;-78
2022/06/27 04:17:43;;;;;;;28.25;23.75;;;;;;;;;;4959004;28;20043;-77
2022/06/27 04:20:09;;;;;;;25.67;22.90;;;;;;;;;;4952108;28;20039;-78
2022/06/27 04:22:34;;;;;;;26.65;22.95;;;;;;;16.51;100.00;68602.81;4956968;28;20396;-77
2022/06/27 04:25:01;;;;;;;26.75;23.30;;;;;;;16.47;100.00;68604.78;4954126;28;20126;-78
2022/06/27 04:27:27;;;;;;;27.92;24.60;;;;;;;16.53;100.00;68605.66;4958209;28;20047;-78
2022/06/27 04:29:53;;;;;;;26.67;22.48;;;;;;;16.57;100.00;68615.03;4958507;28;20125;-78
2022/06/27 04:32:20;;;;;;;30.85;24.38;;;;;;;16.58;100.00;68610.81;4957419;28;20070;-80
2022/06/27 04:34:46;;;;;;;29.75;26.42;;;;;;;16.54;100.00;68611.59;4954589;28;20130;-79
2022/06/27 04:37:12;;;;;;;30.58;25.05;;;;;;;16.57;100.00;68615.03;4957093;28;20098;-77
2022/06/27 04:39:38;;;;;;;30.35;24.35;;;;;;;16.61;100.00;68619.59;4954545;28;20043;-78
2022/06/27 04:42:04;;;;;;;28.42;24.45;;;;;;;16.57;100.00;68610.25;4954879;28;20097;-77
2022/06/27 04:44:30;;;;;;;29.15;23.83;;;;;;;16.54;100.00;68606.81;4952894;28;20055;-78
2022/06/27 04:46:56;;;;;;;31.30;26.20;;;;;;;;;;4956237;28;20041;-78
2022/06/27 04:49:21;;;;;;;28.40;24.45;;;;;;;;;;4958600;28;20063;-80
2022/06/27 04:51:50;;;;;;;27.15;23.25;;;;;;;16.52;100.00;68604.53;4955590;28;20039;-78
2022/06/27 04:54:17;;;;;;;33.63;26.58;;;;;;;16.52;100.00;68604.53;4940494;28;20502;-78
2022/06/27 04:56:44;;;;;;;29.67;25.70;;;;;;;16.47;100.00;68604.19;4957236;28;20038;-78
2022/06/27 04:59:13;;;;;;;32.72;23.80;;;;;;;16.57;100.00;68609.66;4950252;28;20038;-79
2022/06/27 05:01:39;;;;;;;29.38;24.35;;;;;;;16.61;100.00;68614.22;4955133;28;20450;-80
2022/06/27 05:04:04;;;;;;;32.47;25.15;;;;;;;16.63;100.00;68621.88;4953188;28;20035;-78
2022/06/27 05:06:31;;;;;;;31.20;25.50;;;;;;;16.54;100.00;68606.22;4956447;28;20051;-78
2022/06/27 05:08:56;;;;;;;31.48;27.90;;;;;;;16.44;100.00;68595.97;4955197;28;20035;-78
2022/06/27 05:11:22;;;;;;;29.65;25.05;;;;;;;16.53;100.00;68610.47;4957272;28;20050;-77
2022/06/27 05:13:47;;;;;;;31.02;25.20;;;;;;;;;;4952735;28;20039;-77
2022/06/27 05:16:14;;;;;;;30.83;24.30;;;;;;;16.63;100.00;68617.06;4950834;28;20727;-79
2022/06/27 05:18:40;;;;;;;35.42;27.50;;;;;;;16.64;100.00;68623.59;4955776;28;20408;-76
2022/06/27 05:21:06;;;;;;;34.40;26.48;;;;;;;16.54;100.00;68606.81;4955542;28;20027;-78
2022/06/27 05:23:32;;;;;;;29.55;24.13;;;;;;;16.62;100.00;68615.34;4960008;28;20580;-77
2022/06/27 05:26:01;;;;;;;32.97;25.67;;;;;;;;;;4952072;28;20109;-77
2022/06/27 05:28:26;;;;;;;30.42;26.17;;;;;;;16.59;100.00;68611.94;4949641;28;20573;-78
2022/06/27 05:30:52;;;;;;;32.25;26.13;;;;;;;16.62;100.00;68615.34;4952060;28;20122;-78
2022/06/27 05:33:17;;;;;;;28.33;25.25;;;;;;;16.63;100.00;68621.88;4946715;28;20046;-78
2022/06/27 05:35:43;;;;;;;31.60;26.70;;;;;;;16.63;100.00;68616.50;4962884;28;20071;-79
2022/06/27 05:38:08;;;;;;;31.00;24.85;;;;;;;16.64;100.00;68617.66;4959095;28;20043;-78
2022/06/27 05:40:34;;;;;;;26.05;22.30;;;;;;;;;;4953493;28;20557;-78
2022/06/27 05:42:59;;;;;;;27.95;22.42;;;;;;;16.65;100.00;68618.78;4953473;28;20126;-79
2022/06/27 05:45:25;;;;;;;25.98;21.20;;;;;;;16.64;100.00;68618.22;4955331;28;20047;-78
2022/06/27 05:48:01;;;;;;;22.10;19.70;;;;;;;16.61;100.00;68614.22;4962047;28;20136;-78
2022/06/27 05:50:27;;;;;;;21.90;18.13;;;;;;;16.62;100.00;68615.94;4955449;28;20135;-78
2022/06/27 05:52:53;;;;;;;20.63;17.67;;;;;;;16.62;100.00;68615.94;4949774;28;20036;-78
2022/06/27 05:55:21;;;;;;;25.20;18.58;;;;;;;;;;4952106;28;20050;-77
2022/06/27 05:57:47;;;;;;;22.20;18.55;;;;;;;16.64;100.00;68618.22;4950182;28;20125;-78
2022/06/27 06:00:13;;;;;;;22.00;18.60;;;;;;;;;;4952462;28;20053;-77
2022/06/27 06:02:38;;;;;;;25.00;18.50;;;;;;;16.56;100.00;68608.53;4954665;28;20043;-79
2022/06/27 06:05:04;;;;;;;20.27;16.75;;;;;;;16.57;100.00;68609.66;4951338;28;20063;-78
2022/06/27 06:07:30;;;;;;;24.23;19.88;;;;;;;16.58;100.00;68610.81;4954834;28;20046;-78
2022/06/27 06:09:55;;;;;;;21.67;18.45;;;;;;;16.58;100.00;68616.19;4954691;28;20035;-78
2022/06/27 06:12:21;;;;;;;23.35;20.02;;;;;;;16.57;100.00;68615.63;4961389;28;20065;-77
2022/06/27 06:14:47;;;;;;;22.08;18.73;;;;;;;16.57;100.00;68606.97;4954301;28;20126;-78
2022/06/27 06:17:13;;;;;;;22.13;19.63;;;;;;;16.52;100.00;68609.34;4950283;28;20561;-78
2022/06/27 06:19:39;;;;;;;21.90;18.52;;;;;;;16.53;100.00;68610.47;4958216;28;20051;-78
2022/06/27 06:22:05;;;;;;;23.25;18.83;;;;;;;;;;4957861;28;20078;-77
2022/06/27 06:24:30;;;;;;;22.92;19.50;;;;;;;16.57;100.00;68615.63;4955548;28;20066;-77
2022/06/27 06:26:56;;;;;;;22.80;20.40;;;;;;;16.54;100.00;68611.59;4954382;28;20051;-78
2022/06/27 06:29:23;;;;;;;25.65;20.58;;;;;;;16.58;100.00;68608.13;4956459;28;20031;-79
2022/06/27 06:31:49;;;;;;;22.70;19.33;;;;;;;16.60;100.00;68618.44;4958863;28;20043;-78
2022/06/27 06:34:15;;;;;;;20.73;17.92;;;;;;;16.59;100.00;68612.50;4961527;28;20046;-76
2022/06/27 06:36:41;;;;;;;20.85;18.08;;;;;;;;;;4968286;28;20050;-78
2022/06/27 06:39:07;;;;;;;21.58;19.02;;;;;;;16.59;100.00;68611.94;4972274;28;20511;-77
2022/06/27 06:41:35;;;;;;;19.88;17.77;;;;;;;16.71;100.00;68625.63;4962734;28;20134;-77
2022/06/27 06:44:02;;;;;;;23.42;18.92;;;;;;;;;;4962232;28;20043;-77
2022/06/27 06:46:28;;;;;;;20.52;18.40;;;;;;;;;;4969447;28;20106;-77
2022/06/27 06:49:02;;;;;;;21.98;18.58;;;;;;;16.58;100.00;68616.19;4983411;28;20315;-77
2022/06/27 06:51:31;;;;;;;22.73;20.13;;;;;;;16.63;100.00;68622.44;4946648;28;20043;-79
2022/06/27 06:53:56;;;;;;;;;;;;;;;;;;4959641;28;20082;-76
2022/06/27 06:56:22;;;;;;;19.90;17.83;;;;;;;16.65;100.00;68624.16;4965845;28;19930;-76
2022/06/27 06:58:47;;;;;;;17.83;15.90;;;;;;;16.84;100.00;68640.47;4966432;28;20034;-77
2022/06/27 07:01:13;;;;;;;19.50;16.17;;;;;;;;;;4965003;28;20053;-76
2022/06/27 07:03:38;;;;;;;19.80;17.67;;;;;;;;;;4965834;28;20051;-78
2022/06/27 07:06:03;;;;;;;19.00;16.75;;;;;;;16.88;100.00;68650.41;4962707;28;20059;-76
2022/06/27 07:08:33;;;;;;;19.33;17.08;;;;;;;17.00;100.00;68662.94;4966497;28;20050;-77
2022/06/27 07:10:59;;;;;;;17.92;15.30;;;;;;;;;;4964061;28;20054;-75
2022/06/27 07:13:25;;;;;;;16.63;14.93;;;;;;;;;;4966426;28;20057;-76
2022/06/27 07:15:51;;;;;;;17.23;14.73;;;;;;;17.09;100.00;68668.41;4961361;28;20118;-76
2022/06/27 07:18:17;;;;;;;14.43;12.93;;;;;;;17.13;100.00;68677.78;4962071;28;20502;-77
2022/06/27 07:20:43;;;;;;;14.57;12.13;;;;;;;;;;4959507;28;20053;-77
2022/06/27 07:23:09;;;;;;;13.52;11.98;;;;;;;;;;4963575;28;20038;-77
2022/06/27 07:25:35;;;;;;;13.23;11.27;;;;;;;17.05;100.00;68669.22;4957545;28;20465;-76
2022/06/27 07:28:01;;;;;;;12.35;10.60;;;;;;;17.07;100.00;68666.13;4959815;28;20082;-76
2022/06/27 07:30:26;;;;;;;14.30;12.80;;;;;;;;;;4959024;28;20062;-77
2022/06/27 07:32:51;;;;;;;12.98;11.15;;;;;;;17.09;100.00;68663.03;4958947;28;20043;-77
2022/06/27 07:35:17;;;;;;;12.15;10.43;;;;;;;;;;4957704;28;20992;-77
2022/06/27 07:37:47;;;;;;;10.18;8.98;;;;;;;17.22;100.00;68682.66;4957315;28;20655;-75
2022/06/27 07:40:14;;;;;;;12.98;11.48;;;;;;;17.26;100.00;68681.88;4955979;28;20132;-78
2022/06/27 07:42:40;;;;;;;11.95;10.65;;;;;;;17.19;100.00;68679.25;4956691;28;20051;-77
2022/06/27 07:45:06;;;;;;;11.38;10.10;;;;;;;;;;4956030;28;20081;-75
2022/06/27 07:50:09;;;;;;;11.10;9.23;;;;;;;17.13;100.00;68672.97;5006437;28;20053;-83
2022/06/27 07:53:11;;;;;;;13.30;10.45;;;;;;;;;;5014426;28;20050;-85
2022/06/27 07:55:21;;;;;;;12.52;10.00;;;;;;;;;;5009419;28;20152;-81
2022/06/27 07:57:48;;;;;;;13.02;10.82;;;;;;;;;;5015607;28;20038;-85
2022/06/27 08:00:14;;;;;;;11.20;10.05;;;;;;;;;;5007901;28;20054;-83
2022/06/27 08:02:39;;;;;;;12.30;10.13;;;;;;;;;;5012090;28;20046;-80
2022/06/27 08:05:05;;;;;;;12.35;10.32;;;;;;;17.42;100.00;68704.34;5021903;28;20076;-80
2022/06/27 08:07:31;;;;;;;11.43;9.13;;;;;;;17.45;100.00;68707.78;5013911;28;20076;-81
2022/06/27 08:09:57;;;;;;;10.60;9.23;;;;;;;17.47;100.00;68710.06;5022149;28;20041;-81
2022/06/27 08:12:22;;;;;;;9.60;8.60;;;;;;;17.48;100.00;68711.75;5013409;28;20437;-81
2022/06/27 08:14:49;;;;;;;9.15;7.80;;;;;;;17.52;100.00;68710.38;5008588;28;20041;-80
2022/06/27 08:17:15;;;;;;;9.95;7.60;;;;;;;17.59;100.00;68723.75;4997636;28;20122;-80
2022/06/27 08:19:40;;;;;;;9.15;7.97;;;;;;;;;;4986022;28;20049;-80
2022/06/27 08:22:06;;;;;;;9.98;7.05;;;;;;;;;;4985858;28;20070;-81
2022/06/27 08:24:31;;;;;;;10.45;7.32;;;;;;;;;;4987552;28;20050;-81
2022/06/27 08:26:58;;;;;;;9.02;6.93;;;;;;;17.48;100.00;68711.75;4986779;28;20050;-81
2022/06/27 08:29:24;;;;;;;8.68;7.20;;;;;;;;;;4987022;28;20049;-81
2022/06/27 08:31:52;;;;;;;8.90;7.20;;;;;;;17.40;100.00;68702.06;4988564;28;20034;-81
2022/06/27 08:34:17;;;;;;;7.40;6.70;;;;;;;;;;4986202;28;20035;-81
2022/06/27 08:36:43;;;;;;;7.88;6.68;;;;;;;17.39;100.00;68701.50;4987687;28;20053;-80
2022/06/27 08:39:15;;;;;;;8.55;7.10;;;;;;;17.37;100.00;68697.09;4970318;28;20049;-81
2022/06/27 08:41:41;;;;;;;7.53;6.35;;;;;;;;;;4987363;28;20048;-81
2022/06/27 08:44:06;;;;;;;10.40;7.80;;;;;;;17.37;100.00;68699.78;4964461;28;20042;-81
2022/06/27 08:46:33;;;;;;;8.15;7.32;;;;;;;17.30;100.00;68691.22;4985582;28;20274;-81
2022/06/27 08:48:58;;;;;;;10.43;7.40;;;;;;;;;;4987526;28;20049;-81
2022/06/27 08:51:24;;;;;;;8.68;7.82;;;;;;;17.15;100.00;68672.00;4983768;28;20498;-80
2022/06/27 08:53:54;;;;;;;8.10;7.30;;;;;;;17.25;100.00;68682.84;4988476;28;20488;-81
2022/06/27 08:56:20;;;;;;;8.40;7.50;;;;;;;;;;4968888;28;20046;-81
2022/06/27 08:58:47;;;;;;;9.27;7.82;;;;;;;17.24;100.00;68689.78;4984692;28;20034;-81
2022/06/27 09:01:18;;;;;;;8.68;7.82;;;;;;;17.24;100.00;68684.97;4978842;28;20081;-81
2022/06/27 09:04:06;;;;;;;9.07;7.65;;;;;;;17.22;100.00;68682.09;4982552;28;20048;-80
2022/06/27 09:06:55;;;;;;;8.60;7.70;;;;;;;;;;4980415;28;20046;-80
2022/06/27 09:09:24;;;;;;;10.93;7.85;;;;;;;17.26;100.00;68683.97;4974041;28;20058;-79
2022/06/27 09:11:49;;;;;;;10.30;8.65;;;;;;;17.21;100.00;68681.53;4980606;28;20038;-79
2022/06/27 09:14:43;;;;;;;9.27;8.10;;;;;;;17.16;100.00;68675.81;4980408;28;20618;-79
2022/06/27 09:17:12;;;;;;;10.38;8.82;;;;;;;;;;4979897;28;20034;-79
2022/06/27 09:19:52;;;;;;;13.02;9.02;;;;;;;17.09;100.00;68673.22;4966800;28;20062;-78
2022/06/27 09:22:19;;;;;;;10.80;9.68;;;;;;;;;;4982562;28;20038;-79
2022/06/27 09:25:20;;;;;;;11.18;9.18;;;;;;;17.12;100.00;68671.84;4967064;28;20042;-79
2022/06/27 09:27:51;;;;;;;11.90;10.07;;;;;;;17.00;100.00;68663.50;4942419;28;20558;-79
2022/06/27 09:30:22;;;;;;;14.40;10.15;;;;;;;17.07;100.00;68665.56;5010210;28;20064;-79
2022/06/27 09:32:59;;;;;;;13.68;11.18;;;;;;;17.06;100.00;68670.38;4994438;28;20050;-78
2022/06/27 09:35:31;;;;;;;12.25;11.00;;;;;;;;;;4989989;28;20037;-79
2022/06/27 09:38:03;;;;;;;13.60;11.27;;;;;;;17.34;100.00;68696.34;4975197;28;20859;-79
2022/06/27 09:40:32;;;;;;;12.85;11.50;;;;;;;17.48;100.00;68711.19;4971564;28;20812;-79
2022/06/27 09:42:58;;;;;;;13.77;12.00;;;;;;;;;;4978965;28;20049;-79
2022/06/27 09:45:26;;;;;;;14.75;12.77;;;;;;;17.56;100.00;68720.31;4979703;28;20053;-79
2022/06/27 09:48:01;;;;;;;15.52;13.15;;;;;;;17.55;100.00;68719.16;4983457;28;20042;-79
2022/06/27 09:50:29;;;;;;;14.77;13.27;;;;;;;17.62;100.00;68723.91;4979743;28;21429;-79
2022/06/27 09:52:54;;;;;;;16.48;13.65;;;;;;;;;;4978999;28;20624;-80
2022/06/27 09:55:21;;;;;;;11.60;10.23;;;;;;;17.65;100.00;68730.03;4982430;28;20042;-80
2022/06/27 09:57:47;;;;;;;11.95;10.10;;;;;;;17.70;100.00;68741.69;4981604;28;20220;-80
2022/06/27 10:00:13;;;;;;;12.65;11.35;;;;;;;17.74;100.00;68738.16;4981134;28;20093;-80
2022/06/27 10:02:39;;;;;;;11.05;9.95;;;;;;;;;;4959633;28;20460;-80
2022/06/27 10:05:05;;;;;;;12.65;10.48;;;;;;;;;;4982041;28;20042;-80
2022/06/27 10:07:31;;;;;;;12.07;10.40;;;;;;;;;;4982264;28;20169;-80
2022/06/27 10:09:56;;;;;;;12.52;11.23;;;;;;;17.87;100.00;68754.59;4977734;28;20137;-80
2022/06/27 10:12:27;;;;;;;11.85;10.57;;;;;;;17.91;100.00;68759.16;4979090;28;20709;-80
2022/06/27 10:15:11;;;;;;;11.95;10.75;;;;;;;17.94;100.00;68762.56;4981669;28;20046;-80
2022/06/27 10:17:48;;;;;;;11.75;10.52;;;;;;;17.92;100.00;68760.84;4989394;28;20041;-80
2022/06/27 10:20:26;;;;;;;12.57;11.25;;;;;;;17.97;100.00;68766.56;4977056;28;20515;-80
2022/06/27 10:23:04;;;;;;;11.97;10.77;;;;;;;17.85;100.00;68749.59;4993736;28;20069;-81
2022/06/27 10:25:29;;;;;;;12.48;11.30;;;;;;;17.58;100.00;68722.63;4982788;28;20069;-81
2022/06/27 10:28:07;;;;;;;11.85;10.65;;;;;;;17.66;100.00;68731.72;4986124;28;20034;-81
2022/06/27 10:31:00;;;;;;;13.00;11.80;;;;;;;17.77;100.00;68741.59;4976794;28;20749;-81
2022/06/27 10:33:25;;;;;;;13.00;11.80;;;;;;;;;;4982470;28;20649;-81
2022/06/27 10:38:26;;;;;;;13.57;12.25;;;;;;;17.76;100.00;68737.75;4994365;28;20041;-80
2022/06/27 10:40:53;;;;;;;13.00;11.70;;;;;;;17.90;100.00;68758.00;4993323;28;20539;-80
2022/06/27 10:43:37;;;;;;;12.07;10.85;;;;;;;;;;4994721;28;20038;-80
2022/06/27 10:46:08;;;;;;;12.23;10.90;;;;;;;17.96;100.00;68764.84;4979545;28;20054;-80
2022/06/27 10:48:36;;;;;;;10.85;9.85;;;;;;;17.99;100.00;68768.84;4979409;28;20081;-80
2022/06/27 10:51:29;;;;;;;11.98;9.95;;;;;;;18.15;100.00;68786.53;4975382;28;20129;-80
2022/06/27 10:54:04;;;;;;;10.43;9.38;;;;;;;18.02;100.00;68769.56;4967363;28;20070;-81
2022/06/27 10:56:30;;;;;;;11.43;10.32;;;;;;;18.02;100.00;68771.69;4986670;28;20169;-80
2022/06/27 10:58:56;;;;;;;10.85;8.73;;;;;;;;;;4986348;28;20041;-80
2022/06/27 11:01:21;;;;;;;10.63;9.52;;;;;;;18.25;100.00;68797.38;4985680;28;20034;-80
2022/06/27 11:03:48;;;;;;;10.60;9.50;;;;;;;18.28;100.00;68800.81;4986778;28;20615;-81
2022/06/27 11:06:14;;;;;;;10.57;9.57;;;;;;;18.29;100.00;68801.38;5000064;28;20079;-80
2022/06/27 11:08:41;;;;;;;10.68;9.57;;;;;;;18.48;100.00;68823.06;4987498;28;20035;-80
2022/06/27 11:11:07;;;;;;;10.70;9.65;;;;;;;18.42;100.00;68816.78;5000213;28;20065;-80
2022/06/27 11:13:38;;;;;;;10.82;9.73;;;;;;;18.30;100.00;68802.50;4985194;28;20117;-81
2022/06/27 11:16:05;;;;;;;11.07;9.32;;;;;;;18.20;100.00;68786.84;4986517;28;20533;-81
2022/06/27 11:18:40;;;;;;;9.90;8.90;;;;;;;18.34;100.00;68804.41;4982584;28;20065;-81
2022/06/27 11:21:06;;;;;;;9.73;8.73;;;;;;;18.41;100.00;68815.66;4999171;28;20053;-80
2022/06/27 11:23:47;;;;;;;10.52;9.43;;;;;;;18.47;100.00;68822.50;5001544;28;20046;-81
2022/06/27 11:26:13;;;;;;;10.23;9.18;;;;;;;18.44;100.00;68818.50;4984303;28;20101;-80
2022/06/27 11:34:08;;;;;;;9.55;8.55;;;;;;;18.60;100.00;68836.19;4979545;28;20057;-81
2022/06/27 11:36:33;;;;;;;9.55;8.57;;;;;;;18.61;100.00;68837.91;4987501;28;20050;-81
2022/06/27 11:38:59;;;;;;;11.02;9.93;;;;;;;;;;4984872;28;20615;-80
2022/06/27 11:41:27;;;;;;;10.18;9.18;;;;;;;18.54;100.00;68823.97;4981457;28;20050;-81
2022/06/27 11:44:02;;;;;;;10.73;9.63;;;;;;;18.61;100.00;68837.34;4984112;28;20378;-80
2022/06/27 11:46:34;;;;;;;9.73;8.73;;;;;;;18.65;100.00;68842.50;4983195;28;20062;-80
2022/06/27 11:49:10;;;;;;;11.05;9.90;;;;;;;18.67;100.00;68844.78;4986671;28;20038;-80
2022/06/27 11:51:41;;;;;;;10.70;9.63;;;;;;;18.69;100.00;68846.47;4982523;28;20119;-80
2022/06/27 11:54:12;;;;;;;11.10;10.00;;;;;;;18.74;100.00;68857.03;4986094;28;20039;-80
2022/06/27 11:56:41;;;;;;;10.77;9.68;;;;;;;;;;4987192;28;20126;-80
2022/06/27 11:59:10;;;;;;;11.25;10.05;;;;;;;18.59;100.00;68835.63;5001201;28;20053;-80
2022/06/27 12:01:59;;;;;;;11.48;10.30;;;;;;;18.62;100.00;68839.06;4986364;28;20661;-81
2022/06/27 12:04:29;;;;;;;11.30;10.10;;;;;;;18.62;100.00;68839.06;4986753;28;20049;-81
2022/06/27 12:06:58;;;;;;;10.85;9.77;;;;;;;18.44;100.00;68818.50;4984206;28;20030;-81
2022/06/27 12:09:27;;;;;;;10.75;9.40;;;;;;;18.51;100.00;68825.94;4986905;28;20052;-80